KGDV/GDV METAR and TAF weather

Enter ICAO airport designator
Station Type Date Time Source
KGDV METAR 2021/06/22 23:56 UTC NOAA

KGDV 222356Z AUTO 31013KT 10SM CLR 32/04 A2966 RMK AO2 SLP024 T03220039 10339 20294 56007


Station Type Date Time Source
KGDV Decoded METAR 2021/06/22 23:56 UTC NOAA

Glendive, Dawson Community Airport, MT, United States (KGDV) 47-08N 104-48W
Jun 22, 2021 - 07:56 PM EDT / 2021.06.22 2356 UTC
Wind: from the NW (310 degrees) at 15 MPH (13 KT):0
Visibility: 10 mile(s):0
Sky conditions: clear
Temperature: 90.0 F (32.2 C)
Dew Point: 39.0 F (3.9 C)
Relative Humidity: 16%
Pressure (altimeter): 29.66 in. Hg (1004 hPa)
Pressure tendency: 0.02 inches (0.7 hPa) lower than three hours ago
ob: KGDV 222356Z AUTO 31013KT 10SM CLR 32/04 A2966 RMK AO2 SLP024 T03220039 10339 20294 56007
cycle: 0

Station Type Date Time Source
KGDV TAF 2021/06/22 18:22 UTC NOAA

TAF KGDV 221720Z 2218/2318 21008KT P6SM SKC
FM222000 25008KT P6SM SKC
FM230300 VRB05KT P6SM SKC

Example: see airport list